This is the latest recevied weather packets stored in our database for station/object KC4GS-13. If no packets are shown the sender has not sent any weather packets the latest 10 day(s).
| Time | Temp. | Humidity | Pressure | Rain* | Wind** | Luminosity | Snow |
|---|---|---|---|---|---|---|---|
| 1778101425 | 31.67° C | 43% | 1013.2 hPa | 0 mm | - | 396 W/m² | - |
| 1778101122 | 32.22° C | 44% | 1013.5 hPa | 0 mm | - | 416 W/m² | - |
| 1778100818 | 31.67° C | 44% | 1013.4 hPa | 0 mm | - | 422 W/m² | - |
| 1778100515 | 32.22° C | 43% | 1013.2 hPa | 0 mm | - | 567 W/m² | - |
| 1778100213 | 32.22° C | 42% | 1013.7 hPa | 0 mm | - | 566 W/m² | - |
| 1778099910 | 31.11° C | 43% | 1013.8 hPa | 0 mm | - | 645 W/m² | - |
| 1778099607 | 31.11° C | 44% | 1013.8 hPa | 0 mm | - | 244 W/m² | - |
| 1778099304 | 31.67° C | 44% | 1014 hPa | 0 mm | - | 209 W/m² | - |
| 1778099001 | 32.22° C | 42% | 1014 hPa | 0 mm | - | 248 W/m² | - |
| 1778098697 | 32.22° C | 43% | 1013.9 hPa | 0 mm | - | 317 W/m² | - |
| 1778098395 | 31.67° C | 42% | 1014 hPa | 0 mm | - | 632 W/m² | - |
| 1778098092 | 31.67° C | 43% | 1014.1 hPa | 0 mm | - | 657 W/m² | - |
| 1778097787 | 31.11° C | 45% | 1014.2 hPa | 0 mm | - | 304 W/m² | - |
| 1778097484 | 32.22° C | 43% | 1014.5 hPa | 0 mm | - | 119 W/m² | - |
| 1778097181 | 31.67° C | 42% | 1014.3 hPa | 0 mm | - | 629 W/m² | - |
| 1778096878 | 31.67° C | 43% | 1014.2 hPa | 0 mm | - | 677 W/m² | - |
| 1778096574 | 31.67° C | 43% | 1014.5 hPa | 0 mm | - | 674 W/m² | - |
| 1778096273 | 31.67° C | 43% | 1014.3 hPa | 0 mm | - | 727 W/m² | - |
| 1778095969 | 32.22° C | 42% | 1014.7 hPa | 0 mm | - | 262 W/m² | - |
| 1778095665 | 32.22° C | 41% | 1015 hPa | 0 mm | - | 691 W/m² | - |
| 1778095362 | 31.67° C | 42% | 1014.9 hPa | 0 mm | - | 732 W/m² | - |
| 1778095059 | 31.67° C | 42% | 1014.8 hPa | 0 mm | - | 714 W/m² | - |
| 1778094755 | 31.67° C | 41% | 1015 hPa | 0 mm | - | 719 W/m² | - |
| 1778094452 | 31.67° C | 41% | 1015 hPa | 0 mm | - | 656 W/m² | - |
| 1778094149 | 31.11° C | 44% | 1015 hPa | 0 mm | - | 653 W/m² | - |
* Rain latest hour (hover to see other rain measurements)
** Current wind speed in m/s (hover to see current wind gust speed)